createdAt,value
2023-02-05T00:00:27.055Z,-1.90
2023-02-05T00:05:29.562Z,-1.90
2023-02-05T00:10:32.581Z,-1.40
2023-02-05T00:15:39.504Z,-2.10
2023-02-05T00:20:42.102Z,-2.10
2023-02-05T00:25:44.454Z,-2.20
2023-02-05T00:30:46.968Z,-2.30
2023-02-05T00:35:51.104Z,-2.30
2023-02-05T00:40:53.562Z,-2.40
2023-02-05T00:45:56.213Z,-2.50
2023-02-05T00:50:58.893Z,-2.50
2023-02-05T00:56:01.586Z,-2.60
2023-02-05T01:01:04.923Z,-2.60
2023-02-05T01:06:08.348Z,-2.60
2023-02-05T01:11:11.427Z,-2.70
2023-02-05T01:16:14.217Z,-2.70
2023-02-05T01:21:16.797Z,-2.80
2023-02-05T01:26:19.302Z,-2.80
2023-02-05T01:31:22.455Z,-2.90
2023-02-05T01:36:24.938Z,-2.90
2023-02-05T01:41:27.386Z,-2.90
2023-02-05T01:46:31.041Z,-2.90
2023-02-05T01:51:36.566Z,-2.90
2023-02-05T01:57:03.346Z,-2.90
2023-02-05T02:02:08.636Z,-2.90
2023-02-05T02:07:14.631Z,-2.90
2023-02-05T02:12:23.170Z,-3.00
2023-02-05T02:17:27.876Z,-3.00
2023-02-05T02:22:55.110Z,-3.10
2023-02-05T02:28:12.153Z,-3.10
2023-02-05T02:33:20.404Z,-3.20
2023-02-05T02:38:34.510Z,-3.20
2023-02-05T02:43:50.146Z,-3.20
2023-02-05T02:48:57.287Z,-3.30
2023-02-05T02:54:05.456Z,-3.30
2023-02-05T02:59:14.775Z,-3.40
2023-02-05T03:04:39.272Z,-3.40
2023-02-05T03:09:58.208Z,-3.40
2023-02-05T03:15:01.584Z,-3.40
2023-02-05T03:20:10.409Z,-3.40
2023-02-05T03:25:14.730Z,-3.40
2023-02-05T03:30:18.377Z,-3.50
2023-02-05T03:35:53.616Z,-3.50
2023-02-05T03:41:13.981Z,-3.60
2023-02-05T03:46:37.830Z,-3.60
2023-02-05T03:51:47.835Z,-3.70
2023-02-05T03:57:18.575Z,-3.70
2023-02-05T04:02:23.167Z,-3.70
2023-02-05T04:07:25.774Z,-3.70
2023-02-05T04:12:28.513Z,-3.70
2023-02-05T04:17:31.929Z,-3.80
2023-02-05T04:22:34.550Z,-3.90
2023-02-05T04:27:37.254Z,-3.90
2023-02-05T04:32:44.087Z,-3.90
2023-02-05T04:37:47.320Z,-3.90
2023-02-05T04:42:50.985Z,-3.90
2023-02-05T04:47:53.345Z,-4.00
2023-02-05T04:52:55.740Z,-4.00
2023-02-05T04:57:58.824Z,-4.10
2023-02-05T05:03:01.382Z,-4.20
2023-02-05T05:08:03.863Z,-4.20
2023-02-05T05:13:06.238Z,-4.20
2023-02-05T05:18:08.992Z,-4.30
2023-02-05T05:23:11.457Z,-4.20
2023-02-05T05:28:15.122Z,-4.30
2023-02-05T05:33:17.593Z,-4.20
2023-02-05T05:38:20.001Z,-4.30
2023-02-05T05:43:40.765Z,-4.30
2023-02-05T05:48:43.177Z,-4.30
2023-02-05T05:53:46.408Z,-4.30
2023-02-05T05:58:49.333Z,-4.30
2023-02-05T06:03:51.733Z,-4.20
2023-02-05T06:08:54.143Z,-4.20
2023-02-05T06:13:56.508Z,-4.10
2023-02-05T06:18:59.371Z,-4.20
2023-02-05T06:24:01.787Z,-4.20
2023-02-05T06:29:04.274Z,-4.30
2023-02-05T06:34:06.713Z,-4.30
2023-02-05T06:39:09.154Z,-4.30
2023-02-05T06:44:11.581Z,-4.30
2023-02-05T06:49:13.984Z,-4.30
2023-02-05T06:54:16.515Z,-4.30
2023-02-05T06:59:18.923Z,-4.20
2023-02-05T07:04:21.317Z,-4.20
2023-02-05T07:09:24.125Z,-4.10
2023-02-05T07:14:26.542Z,-4.10
2023-02-05T07:19:29.465Z,-4.00
2023-02-05T07:24:31.999Z,-4.00
2023-02-05T07:29:34.359Z,-3.90
2023-02-05T07:34:36.869Z,-3.90
2023-02-05T07:39:39.335Z,-3.70
2023-02-05T07:44:41.820Z,-3.60
2023-02-05T07:49:44.211Z,-3.30
2023-02-05T07:54:47.672Z,-3.10
2023-02-05T07:59:50.050Z,-3.00
2023-02-05T08:04:52.695Z,-2.80
2023-02-05T08:09:55.105Z,-2.60
2023-02-05T08:14:57.466Z,-2.30
2023-02-05T08:20:07.361Z,-2.40
2023-02-05T08:25:12.796Z,-2.40
2023-02-05T08:30:17.347Z,-2.30
2023-02-05T08:35:19.905Z,-2.20
2023-02-05T08:40:22.449Z,-2.10
2023-02-05T08:45:25.098Z,-1.90
2023-02-05T08:50:27.764Z,-1.70
2023-02-05T08:55:30.261Z,-1.60
2023-02-05T09:00:33.330Z,-1.40
2023-02-05T09:05:35.986Z,-1.00
2023-02-05T09:10:38.540Z,-1.10
2023-02-05T09:15:48.278Z,-1.00
2023-02-05T09:20:52.790Z,-1.00
2023-02-05T09:25:55.177Z,-0.80
2023-02-05T09:30:57.684Z,-0.70
2023-02-05T09:36:06.604Z,-0.50
2023-02-05T09:41:14.916Z,-0.40
2023-02-05T09:46:23.559Z,-0.20
2023-02-05T09:51:49.901Z,-0.10
2023-02-05T09:56:57.176Z,-0.10
2023-02-05T10:02:18.178Z,0.00
2023-02-05T10:07:35.824Z,0.10
2023-02-05T10:12:43.597Z,0.30
2023-02-05T10:18:14.892Z,0.20
2023-02-05T10:23:30.384Z,0.40
2023-02-05T10:28:40.649Z,0.30
2023-02-05T10:34:18.851Z,0.60
2023-02-05T10:39:25.479Z,0.80
2023-02-05T10:44:32.532Z,1.00
2023-02-05T10:50:06.907Z,1.10
2023-02-05T10:55:13.148Z,1.20
2023-02-05T11:00:19.693Z,1.00
2023-02-05T11:05:30.394Z,1.30
2023-02-05T11:10:35.823Z,0.90
2023-02-05T11:16:04.300Z,1.10
2023-02-05T11:21:09.220Z,1.20
2023-02-05T11:26:23.694Z,1.30
2023-02-05T11:31:30.750Z,1.30
2023-02-05T11:36:33.315Z,1.10
2023-02-05T11:41:51.846Z,1.20
2023-02-05T11:46:57.080Z,1.50
2023-02-05T11:52:01.710Z,1.80
2023-02-05T11:57:22.105Z,1.90
2023-02-05T12:02:28.838Z,1.70
2023-02-05T12:08:03.403Z,1.20
2023-02-05T12:13:25.274Z,1.50
2023-02-05T12:18:40.534Z,1.50
2023-02-05T12:23:49.548Z,1.30
2023-02-05T12:28:57.926Z,1.20
2023-02-05T12:34:03.077Z,1.20
2023-02-05T12:39:44.597Z,1.30
2023-02-05T12:44:46.970Z,1.30
2023-02-05T12:50:03.548Z,1.60
2023-02-05T12:55:31.355Z,1.60
2023-02-05T13:00:54.595Z,1.80
2023-02-05T13:06:08.973Z,1.80
2023-02-05T13:11:25.078Z,1.80
2023-02-05T13:16:37.872Z,1.90
2023-02-05T13:21:59.852Z,1.50
2023-02-05T13:27:20.722Z,1.30
2023-02-05T13:32:25.609Z,1.40
2023-02-05T13:38:10.416Z,1.10
2023-02-05T13:43:27.933Z,0.90
2023-02-05T13:48:39.286Z,0.80
2023-02-05T13:54:13.769Z,0.80
2023-02-05T13:59:41.421Z,1.00
2023-02-05T14:04:54.039Z,1.10
2023-02-05T14:10:00.995Z,1.20
2023-02-05T14:15:15.894Z,1.30
2023-02-05T14:20:31.201Z,1.10
2023-02-05T14:25:39.001Z,1.20
2023-02-05T14:31:03.387Z,1.00
2023-02-05T14:36:22.735Z,1.00
2023-02-05T14:41:31.068Z,1.00
2023-02-05T14:46:36.571Z,1.30
2023-02-05T14:51:41.470Z,0.80
2023-02-05T14:56:50.942Z,0.60
2023-02-05T15:01:54.505Z,0.50
2023-02-05T15:07:01.128Z,0.40
2023-02-05T15:12:27.833Z,0.30
2023-02-05T15:17:48.586Z,0.20
2023-02-05T15:23:06.487Z,0.10
2023-02-05T15:28:21.831Z,0.00
2023-02-05T15:33:54.111Z,-0.20
2023-02-05T15:39:24.521Z,-0.30
2023-02-05T15:44:33.094Z,-0.50
2023-02-05T15:49:43.177Z,-0.60
2023-02-05T15:54:45.643Z,-0.80
2023-02-05T15:59:48.521Z,-0.90
2023-02-05T16:04:57.412Z,-0.90
2023-02-05T16:10:01.488Z,-1.00
2023-02-05T16:15:13.420Z,-1.20
2023-02-05T16:20:22.385Z,-1.20
2023-02-05T16:25:28.073Z,-1.30
2023-02-05T16:30:44.881Z,-1.30
2023-02-05T16:35:48.711Z,-1.40
2023-02-05T16:40:54.638Z,-1.50
2023-02-05T16:46:09.151Z,-1.50
2023-02-05T16:51:32.503Z,-1.60
2023-02-05T16:56:38.124Z,-1.70
2023-02-05T17:01:43.902Z,-1.70
2023-02-05T17:06:46.322Z,-1.80
2023-02-05T17:11:48.730Z,-1.80
2023-02-05T17:17:00.994Z,-1.80
2023-02-05T17:22:15.474Z,-1.90
2023-02-05T17:27:27.740Z,-2.00
2023-02-05T17:32:32.200Z,-2.00
2023-02-05T17:37:34.996Z,-2.00
2023-02-05T17:42:37.621Z,-1.90
2023-02-05T17:47:41.702Z,-2.00
2023-02-05T17:52:44.974Z,-2.00
2023-02-05T17:57:47.783Z,-2.10
2023-02-05T18:02:52.486Z,-2.10
2023-02-05T18:07:57.802Z,-2.20
2023-02-05T18:13:00.355Z,-2.30
2023-02-05T18:18:02.886Z,-2.40
2023-02-05T18:23:05.416Z,-2.50
2023-02-05T18:28:07.850Z,-2.50
2023-02-05T18:33:10.252Z,-2.50
2023-02-05T18:38:12.671Z,-2.60
2023-02-05T18:43:15.513Z,-2.70
2023-02-05T18:48:18.131Z,-2.70
2023-02-05T18:53:20.692Z,-2.70
2023-02-05T18:58:23.042Z,-2.70
2023-02-05T19:03:25.770Z,-2.80
2023-02-05T19:08:28.265Z,-2.90
2023-02-05T19:13:30.682Z,-2.90
2023-02-05T19:18:33.388Z,-2.90
2023-02-05T19:23:36.170Z,-3.00
2023-02-05T19:28:38.646Z,-3.10
2023-02-05T19:33:42.656Z,-3.10
2023-02-05T19:38:45.464Z,-3.00
2023-02-05T19:43:57.281Z,-3.00
2023-02-05T19:49:06.063Z,-3.00
2023-02-05T19:54:08.548Z,-3.00
2023-02-05T19:59:11.770Z,-3.00
2023-02-05T20:04:17.480Z,-3.00
2023-02-05T20:09:20.225Z,-3.00
2023-02-05T20:14:23.695Z,-3.00
2023-02-05T20:19:26.232Z,-2.90
2023-02-05T20:24:28.748Z,-2.90
2023-02-05T20:29:49.692Z,-3.00
2023-02-05T20:34:52.322Z,-3.00
2023-02-05T20:39:57.463Z,-2.90
2023-02-05T20:45:00.517Z,-2.90
2023-02-05T20:50:03.136Z,-3.00
2023-02-05T20:55:06.349Z,-3.10
2023-02-05T21:00:10.061Z,-3.10
2023-02-05T21:05:12.604Z,-3.20
2023-02-05T21:10:15.384Z,-3.30
2023-02-05T21:15:17.947Z,-3.40
2023-02-05T21:20:20.372Z,-3.40
2023-02-05T21:25:23.151Z,-3.40
2023-02-05T21:30:25.573Z,-2.60
2023-02-05T21:35:28.465Z,-3.60
2023-02-05T21:40:30.992Z,-3.60
2023-02-05T21:45:36.626Z,-3.60
2023-02-05T21:50:40.694Z,-3.60
2023-02-05T21:55:43.209Z,-3.50
2023-02-05T22:00:45.618Z,-3.50
2023-02-05T22:05:48.172Z,-3.50
2023-02-05T22:10:50.541Z,-3.40
2023-02-05T22:16:27.811Z,-3.40
2023-02-05T22:21:36.190Z,-3.30
2023-02-05T22:26:39.247Z,-3.30
2023-02-05T22:31:42.640Z,-3.30
2023-02-05T22:36:45.230Z,-3.30
2023-02-05T22:41:47.622Z,-3.30
2023-02-05T22:46:50.384Z,-3.20
2023-02-05T22:51:53.277Z,-3.20
2023-02-05T22:56:55.719Z,-3.20
2023-02-05T23:01:58.168Z,-3.10
2023-02-05T23:07:00.723Z,-3.00
2023-02-05T23:12:03.336Z,-3.00
2023-02-05T23:17:05.714Z,-3.00
2023-02-05T23:22:10.325Z,-3.00
2023-02-05T23:27:12.741Z,-3.00
2023-02-05T23:32:15.257Z,-3.10
2023-02-05T23:37:17.945Z,-3.10
2023-02-05T23:42:20.366Z,-3.10
2023-02-05T23:47:23.001Z,-3.20
2023-02-05T23:52:25.395Z,-3.30
2023-02-05T23:57:28.780Z,-3.30
